HLE07 EGSR-EGSR
Flight info
| Callsign | HLE07 |
|---|---|
| Flight time | 1h 11m |
| Altitude | 1500 |
| Route | VFR HEMS |
| Aircraft | A169/L-V/N |
Departure
| Time | 2026-04-18 18:14 |
|---|---|
| Airport | Earls Colne Airfield (EGSR) |
Arrival
| Time | 2026-04-18 19:25 |
|---|---|
| Airport | Earls Colne Airfield (EGSR) |
| Time | Latitude | Longitude | Altitude | Speed | Heading |
|---|---|---|---|---|---|
| 2026-04-18 18:06 | 51.91187 | 0.67675 | 229 ft | 0 kts | 210° |
| 2026-04-18 18:13 | 51.91202 | 0.67669 | 235 ft | 9 kts | 10° |
| 2026-04-18 18:13 | 51.91260 | 0.67795 | 243 ft | 18 kts | 63° |
| 2026-04-18 18:13 | 51.91308 | 0.67941 | 242 ft | 2 kts | 294° |
| 2026-04-18 18:13 | 51.91209 | 0.67666 | 463 ft | 61 kts | 240° |
| 2026-04-18 18:14 | 51.90747 | 0.67113 | 815 ft | 109 kts | 186° |
| 2026-04-18 18:14 | 51.90183 | 0.67934 | 1119 ft | 119 kts | 83° |
| 2026-04-18 18:14 | 51.90472 | 0.69178 | 1015 ft | 130 kts | 54° |
| 2026-04-18 18:14 | 51.90720 | 0.70550 | 1020 ft | 134 kts | 76° |
| 2026-04-18 18:15 | 51.91150 | 0.71933 | 1105 ft | 143 kts | 58° |
| 2026-04-18 18:15 | 51.91699 | 0.73284 | 1124 ft | 146 kts | 47° |
| 2026-04-18 18:15 | 51.92311 | 0.74602 | 1137 ft | 147 kts | 47° |
| 2026-04-18 18:15 | 51.92920 | 0.75939 | 1136 ft | 146 kts | 47° |
| 2026-04-18 18:16 | 51.93522 | 0.77258 | 1117 ft | 145 kts | 46° |
| 2026-04-18 18:16 | 51.94151 | 0.78552 | 1097 ft | 146 kts | 45° |
| 2026-04-18 18:16 | 51.94812 | 0.79806 | 1081 ft | 146 kts | 41° |
| 2026-04-18 18:16 | 51.95495 | 0.81009 | 1089 ft | 146 kts | 41° |
| 2026-04-18 18:17 | 51.96189 | 0.82241 | 1086 ft | 147 kts | 41° |
| 2026-04-18 18:17 | 51.96870 | 0.83452 | 1099 ft | 146 kts | 41° |
| 2026-04-18 18:17 | 51.97554 | 0.84672 | 1075 ft | 147 kts | 41° |
| 2026-04-18 18:17 | 51.98275 | 0.85933 | 1016 ft | 156 kts | 42° |
| 2026-04-18 18:18 | 51.99021 | 0.87211 | 1075 ft | 157 kts | 42° |
| 2026-04-18 18:18 | 51.99766 | 0.88502 | 1107 ft | 157 kts | 41° |
| 2026-04-18 18:18 | 52.00512 | 0.89804 | 1115 ft | 157 kts | 42° |
| 2026-04-18 18:18 | 52.01249 | 0.91095 | 1108 ft | 157 kts | 41° |
| 2026-04-18 18:19 | 52.01987 | 0.92398 | 1095 ft | 157 kts | 43° |
| 2026-04-18 18:19 | 52.02709 | 0.93709 | 1088 ft | 157 kts | 43° |
| 2026-04-18 18:19 | 52.03441 | 0.95036 | 1082 ft | 157 kts | 43° |
| 2026-04-18 18:19 | 52.04170 | 0.96348 | 1088 ft | 157 kts | 43° |
| 2026-04-18 18:20 | 52.04906 | 0.97675 | 1087 ft | 157 kts | 43° |
| 2026-04-18 18:20 | 52.05635 | 0.98984 | 1083 ft | 158 kts | 43° |
| 2026-04-18 18:20 | 52.06378 | 1.00317 | 1083 ft | 158 kts | 43° |
| 2026-04-18 18:20 | 52.07117 | 1.01641 | 1084 ft | 158 kts | 43° |
| 2026-04-18 18:21 | 52.07854 | 1.02961 | 1087 ft | 158 kts | 43° |
| 2026-04-18 18:21 | 52.08589 | 1.04278 | 1088 ft | 158 kts | 43° |
| 2026-04-18 18:21 | 52.09329 | 1.05612 | 1088 ft | 158 kts | 43° |
| 2026-04-18 18:21 | 52.10055 | 1.06928 | 1092 ft | 158 kts | 43° |
| 2026-04-18 18:22 | 52.10796 | 1.08273 | 1093 ft | 158 kts | 43° |
| 2026-04-18 18:22 | 52.11536 | 1.09617 | 1090 ft | 158 kts | 43° |
| 2026-04-18 18:22 | 52.12239 | 1.10893 | 1094 ft | 157 kts | 42° |
| 2026-04-18 18:22 | 52.12973 | 1.12230 | 1095 ft | 157 kts | 43° |
| 2026-04-18 18:23 | 52.13695 | 1.13546 | 1096 ft | 156 kts | 43° |
| 2026-04-18 18:23 | 52.14420 | 1.14866 | 1091 ft | 156 kts | 43° |
| 2026-04-18 18:23 | 52.15143 | 1.16189 | 1090 ft | 156 kts | 43° |
| 2026-04-18 18:23 | 52.15868 | 1.17517 | 1088 ft | 156 kts | 43° |
| 2026-04-18 18:24 | 52.16581 | 1.18823 | 1082 ft | 156 kts | 43° |
| 2026-04-18 18:24 | 52.17307 | 1.20152 | 1084 ft | 156 kts | 42° |
| 2026-04-18 18:24 | 52.18029 | 1.21472 | 1082 ft | 156 kts | 43° |
| 2026-04-18 18:24 | 52.18752 | 1.22784 | 1082 ft | 156 kts | 43° |
| 2026-04-18 18:25 | 52.19476 | 1.24095 | 1085 ft | 156 kts | 42° |
| 2026-04-18 18:25 | 52.20210 | 1.25423 | 1091 ft | 156 kts | 42° |
| 2026-04-18 18:25 | 52.20948 | 1.26732 | 1090 ft | 156 kts | 41° |
| 2026-04-18 18:25 | 52.21677 | 1.28033 | 1092 ft | 156 kts | 41° |
| 2026-04-18 18:26 | 52.22403 | 1.29338 | 1089 ft | 156 kts | 41° |
| 2026-04-18 18:26 | 52.23129 | 1.30638 | 1093 ft | 155 kts | 41° |
| 2026-04-18 18:26 | 52.23864 | 1.31955 | 1083 ft | 155 kts | 41° |
| 2026-04-18 18:26 | 52.24589 | 1.33258 | 1087 ft | 155 kts | 41° |
| 2026-04-18 18:27 | 52.25309 | 1.34553 | 1083 ft | 155 kts | 41° |
| 2026-04-18 18:27 | 52.26049 | 1.35878 | 1082 ft | 155 kts | 41° |
| 2026-04-18 18:27 | 52.26775 | 1.37173 | 1077 ft | 156 kts | 41° |
| 2026-04-18 18:27 | 52.27508 | 1.38474 | 1084 ft | 156 kts | 41° |
| 2026-04-18 18:28 | 52.28241 | 1.39773 | 1088 ft | 156 kts | 41° |
| 2026-04-18 18:28 | 52.28975 | 1.41074 | 1086 ft | 156 kts | 41° |
| 2026-04-18 18:28 | 52.29722 | 1.42396 | 1091 ft | 156 kts | 41° |
| 2026-04-18 18:28 | 52.30454 | 1.43696 | 1094 ft | 156 kts | 41° |
| 2026-04-18 18:29 | 52.31188 | 1.45006 | 1095 ft | 156 kts | 41° |
| 2026-04-18 18:29 | 52.31924 | 1.46324 | 1088 ft | 156 kts | 41° |
| 2026-04-18 18:29 | 52.32649 | 1.47628 | 1087 ft | 155 kts | 41° |
| 2026-04-18 18:29 | 52.33374 | 1.48932 | 1082 ft | 155 kts | 41° |
| 2026-04-18 18:30 | 52.34094 | 1.50235 | 1072 ft | 155 kts | 41° |
| 2026-04-18 18:30 | 52.34822 | 1.51545 | 1079 ft | 155 kts | 41° |
| 2026-04-18 18:30 | 52.35547 | 1.52846 | 1081 ft | 156 kts | 41° |
| 2026-04-18 18:30 | 52.36284 | 1.54170 | 1083 ft | 156 kts | 41° |
| 2026-04-18 18:31 | 52.37015 | 1.55482 | 1082 ft | 156 kts | 41° |
| 2026-04-18 18:31 | 52.37745 | 1.56788 | 1088 ft | 157 kts | 41° |
| 2026-04-18 18:31 | 52.38484 | 1.58115 | 1093 ft | 157 kts | 42° |
| 2026-04-18 18:31 | 52.39101 | 1.59599 | 1096 ft | 158 kts | 51° |
| 2026-04-18 18:32 | 52.39696 | 1.61113 | 1090 ft | 158 kts | 51° |
| 2026-04-18 18:32 | 52.40296 | 1.62632 | 1083 ft | 158 kts | 51° |
| 2026-04-18 18:32 | 52.40882 | 1.64143 | 954 ft | 158 kts | 51° |
| 2026-04-18 18:32 | 52.41464 | 1.65668 | 845 ft | 153 kts | 51° |
| 2026-04-18 18:33 | 52.42014 | 1.67125 | 783 ft | 148 kts | 52° |
| 2026-04-18 18:33 | 52.42563 | 1.68541 | 756 ft | 147 kts | 52° |
| 2026-04-18 18:33 | 52.43090 | 1.69905 | 904 ft | 129 kts | 49° |
| 2026-04-18 18:33 | 52.43496 | 1.71107 | 791 ft | 111 kts | 51° |
| 2026-04-18 18:34 | 52.43899 | 1.72129 | 717 ft | 107 kts | 44° |
| 2026-04-18 18:34 | 52.44367 | 1.73101 | 701 ft | 111 kts | 44° |
| 2026-04-18 18:34 | 52.44973 | 1.73864 | 690 ft | 113 kts | 16° |
| 2026-04-18 18:34 | 52.45690 | 1.74334 | 741 ft | 110 kts | 12° |
| 2026-04-18 18:35 | 52.46403 | 1.74764 | 820 ft | 105 kts | 12° |
| 2026-04-18 18:35 | 52.47079 | 1.75158 | 834 ft | 106 kts | 12° |
| 2026-04-18 18:35 | 52.47786 | 1.75649 | 749 ft | 110 kts | 12° |
| 2026-04-18 18:35 | 52.48217 | 1.75344 | 635 ft | 88 kts | 244° |
| 2026-04-18 18:36 | 52.47888 | 1.75696 | 615 ft | 93 kts | 59° |
| 2026-04-18 18:36 | 52.48318 | 1.75490 | 578 ft | 73 kts | 298° |
| 2026-04-18 18:36 | 52.48253 | 1.74589 | 489 ft | 90 kts | 246° |
| 2026-04-18 18:36 | 52.47797 | 1.74795 | 339 ft | 106 kts | 82° |
| 2026-04-18 18:37 | 52.48123 | 1.75201 | 549 ft | 50 kts | 284° |
| 2026-04-18 18:37 | 52.48127 | 1.74900 | 497 ft | 26 kts | 244° |
| 2026-04-18 18:37 | 52.48093 | 1.74755 | 234 ft | 15 kts | 251° |
| 2026-04-18 18:37 | 52.48073 | 1.74726 | 122 ft | 3 kts | 212° |
| 2026-04-18 18:38 | 52.48074 | 1.74713 | 71 ft | 4 kts | 178° |
| 2026-04-18 18:38 | 52.48065 | 1.74715 | 44 ft | 2 kts | 171° |
| 2026-04-18 18:38 | 52.48064 | 1.74715 | 43 ft | 0 kts | 168° |
| 2026-04-18 19:02 | 52.48071 | 1.74725 | 55 ft | 5 kts | 256° |
| 2026-04-18 19:02 | 52.48081 | 1.74825 | 184 ft | 5 kts | 260° |
| 2026-04-18 19:02 | 52.47967 | 1.74446 | 423 ft | 73 kts | 226° |
| 2026-04-18 19:03 | 52.47394 | 1.74177 | 794 ft | 99 kts | 193° |
| 2026-04-18 19:03 | 52.46714 | 1.74141 | 862 ft | 97 kts | 186° |
| 2026-04-18 19:03 | 52.46010 | 1.74047 | 721 ft | 113 kts | 188° |
| 2026-04-18 19:04 | 52.44187 | 1.73884 | 770 ft | 142 kts | 187° |
| 2026-04-18 19:04 | 52.43162 | 1.73763 | 761 ft | 150 kts | 187° |
| 2026-04-18 19:04 | 52.42123 | 1.73639 | 810 ft | 151 kts | 187° |
| 2026-04-18 19:04 | 52.41088 | 1.73439 | 811 ft | 150 kts | 200° |
| 2026-04-18 19:05 | 52.40303 | 1.72392 | 853 ft | 142 kts | 232° |
| 2026-04-18 19:05 | 52.39039 | 1.69907 | 800 ft | 143 kts | 232° |
| 2026-04-18 19:05 | 52.38394 | 1.68648 | 800 ft | 143 kts | 232° |
| 2026-04-18 19:06 | 52.37754 | 1.67396 | 809 ft | 143 kts | 232° |
| 2026-04-18 19:06 | 52.36483 | 1.64900 | 816 ft | 142 kts | 232° |
| 2026-04-18 19:06 | 52.35854 | 1.63654 | 811 ft | 142 kts | 232° |
| 2026-04-18 19:07 | 52.35231 | 1.62416 | 808 ft | 143 kts | 232° |
| 2026-04-18 19:07 | 52.34597 | 1.61167 | 807 ft | 143 kts | 232° |
| 2026-04-18 19:07 | 52.33956 | 1.59905 | 802 ft | 143 kts | 232° |
| 2026-04-18 19:07 | 52.33318 | 1.58658 | 804 ft | 143 kts | 232° |
| 2026-04-18 19:08 | 52.32673 | 1.57400 | 811 ft | 144 kts | 232° |
| 2026-04-18 19:08 | 52.32032 | 1.56144 | 817 ft | 143 kts | 232° |
| 2026-04-18 19:08 | 52.31393 | 1.54896 | 811 ft | 144 kts | 232° |
| 2026-04-18 19:08 | 52.30749 | 1.53639 | 810 ft | 144 kts | 232° |
| 2026-04-18 19:09 | 52.30106 | 1.52381 | 812 ft | 144 kts | 232° |
| 2026-04-18 19:09 | 52.29464 | 1.51129 | 810 ft | 143 kts | 232° |
| 2026-04-18 19:09 | 52.28856 | 1.49862 | 802 ft | 143 kts | 234° |
| 2026-04-18 19:09 | 52.28243 | 1.48566 | 808 ft | 143 kts | 234° |
| 2026-04-18 19:10 | 52.27634 | 1.47279 | 797 ft | 143 kts | 234° |
| 2026-04-18 19:10 | 52.27020 | 1.45980 | 794 ft | 144 kts | 234° |
| 2026-04-18 19:10 | 52.26408 | 1.44683 | 804 ft | 144 kts | 234° |
| 2026-04-18 19:10 | 52.25802 | 1.43401 | 812 ft | 143 kts | 234° |
| 2026-04-18 19:11 | 52.25195 | 1.42119 | 807 ft | 143 kts | 234° |
| 2026-04-18 19:11 | 52.24582 | 1.40830 | 798 ft | 143 kts | 234° |
| 2026-04-18 19:11 | 52.23970 | 1.39543 | 789 ft | 144 kts | 234° |
| 2026-04-18 19:11 | 52.23359 | 1.38265 | 797 ft | 143 kts | 234° |
| 2026-04-18 19:12 | 52.22742 | 1.36975 | 799 ft | 144 kts | 234° |
| 2026-04-18 19:12 | 52.22128 | 1.35696 | 800 ft | 144 kts | 234° |
| 2026-04-18 19:12 | 52.21502 | 1.34394 | 808 ft | 144 kts | 233° |
| 2026-04-18 19:12 | 52.20884 | 1.33105 | 805 ft | 145 kts | 233° |
| 2026-04-18 19:13 | 52.20255 | 1.31796 | 809 ft | 144 kts | 234° |
| 2026-04-18 19:13 | 52.19638 | 1.30507 | 810 ft | 144 kts | 233° |
| 2026-04-18 19:13 | 52.19013 | 1.29202 | 808 ft | 144 kts | 233° |
| 2026-04-18 19:13 | 52.18393 | 1.27903 | 835 ft | 147 kts | 233° |
| 2026-04-18 19:14 | 52.17788 | 1.26604 | 897 ft | 144 kts | 234° |
| 2026-04-18 19:14 | 52.17171 | 1.25307 | 1040 ft | 143 kts | 233° |
| 2026-04-18 19:14 | 52.16567 | 1.24015 | 1061 ft | 143 kts | 233° |
| 2026-04-18 19:14 | 52.15962 | 1.22716 | 1042 ft | 144 kts | 233° |
| 2026-04-18 19:15 | 52.15353 | 1.21406 | 1031 ft | 144 kts | 233° |
| 2026-04-18 19:15 | 52.14750 | 1.20107 | 1024 ft | 144 kts | 233° |
| 2026-04-18 19:15 | 52.14149 | 1.18808 | 1023 ft | 144 kts | 233° |
| 2026-04-18 19:15 | 52.13554 | 1.17523 | 1023 ft | 143 kts | 233° |
| 2026-04-18 19:16 | 52.12948 | 1.16211 | 1016 ft | 143 kts | 233° |
| 2026-04-18 19:16 | 52.12346 | 1.14916 | 1010 ft | 143 kts | 233° |
| 2026-04-18 19:16 | 52.11753 | 1.13636 | 1007 ft | 143 kts | 233° |
| 2026-04-18 19:16 | 52.11147 | 1.12330 | 1004 ft | 143 kts | 233° |
| 2026-04-18 19:17 | 52.10549 | 1.11046 | 1007 ft | 143 kts | 233° |
| 2026-04-18 19:17 | 52.09952 | 1.09755 | 1004 ft | 143 kts | 233° |
| 2026-04-18 19:17 | 52.09349 | 1.08457 | 1001 ft | 143 kts | 233° |
| 2026-04-18 19:17 | 52.08756 | 1.07176 | 1000 ft | 143 kts | 233° |
| 2026-04-18 19:18 | 52.08155 | 1.05880 | 1000 ft | 143 kts | 233° |
| 2026-04-18 19:18 | 52.07558 | 1.04590 | 1004 ft | 143 kts | 233° |
| 2026-04-18 19:18 | 52.06956 | 1.03289 | 1016 ft | 143 kts | 233° |
| 2026-04-18 19:18 | 52.06364 | 1.02012 | 1015 ft | 143 kts | 233° |
| 2026-04-18 19:19 | 52.05762 | 1.00713 | 1022 ft | 143 kts | 233° |
| 2026-04-18 19:19 | 52.05160 | 0.99415 | 1015 ft | 143 kts | 233° |
| 2026-04-18 19:19 | 52.04560 | 0.98128 | 1012 ft | 143 kts | 233° |
| 2026-04-18 19:19 | 52.03965 | 0.96845 | 1019 ft | 143 kts | 234° |
| 2026-04-18 19:20 | 52.03357 | 0.95537 | 1022 ft | 143 kts | 233° |
| 2026-04-18 19:20 | 52.02760 | 0.94259 | 1023 ft | 143 kts | 233° |
| 2026-04-18 19:20 | 52.02156 | 0.92968 | 1021 ft | 143 kts | 234° |
| 2026-04-18 19:20 | 52.01556 | 0.91684 | 1019 ft | 143 kts | 233° |
| 2026-04-18 19:21 | 52.00951 | 0.90387 | 1017 ft | 143 kts | 233° |
| 2026-04-18 19:21 | 52.00348 | 0.89096 | 1016 ft | 144 kts | 233° |
| 2026-04-18 19:21 | 51.99746 | 0.87809 | 1017 ft | 144 kts | 233° |
| 2026-04-18 19:21 | 51.99137 | 0.86508 | 1027 ft | 144 kts | 233° |
| 2026-04-18 19:22 | 51.98526 | 0.85206 | 1022 ft | 144 kts | 233° |
| 2026-04-18 19:22 | 51.97916 | 0.83914 | 1028 ft | 145 kts | 233° |
| 2026-04-18 19:22 | 51.97306 | 0.82622 | 1026 ft | 145 kts | 233° |
| 2026-04-18 19:22 | 51.96690 | 0.81320 | 1037 ft | 144 kts | 233° |
| 2026-04-18 19:23 | 51.96074 | 0.80039 | 1027 ft | 144 kts | 232° |
| 2026-04-18 19:23 | 51.95452 | 0.78771 | 1020 ft | 144 kts | 232° |
| 2026-04-18 19:23 | 51.94829 | 0.77497 | 1017 ft | 145 kts | 232° |
| 2026-04-18 19:23 | 51.94197 | 0.76204 | 1015 ft | 146 kts | 233° |
| 2026-04-18 19:24 | 51.93566 | 0.74918 | 1025 ft | 146 kts | 232° |
| 2026-04-18 19:24 | 51.92944 | 0.73675 | 997 ft | 137 kts | 229° |
| 2026-04-18 19:24 | 51.92390 | 0.72493 | 828 ft | 123 kts | 234° |
| 2026-04-18 19:24 | 51.92047 | 0.71327 | 654 ft | 110 kts | 253° |
| 2026-04-18 19:25 | 51.91969 | 0.70204 | 537 ft | 91 kts | 254° |
| 2026-04-18 19:25 | 51.91779 | 0.69316 | 372 ft | 78 kts | 241° |
| 2026-04-18 19:25 | 51.91554 | 0.68629 | 267 ft | 58 kts | 237° |
| 2026-04-18 19:25 | 51.91392 | 0.68169 | 246 ft | 33 kts | 243° |
| 2026-04-18 19:26 | 51.91303 | 0.67911 | 246 ft | 21 kts | 243° |
| 2026-04-18 19:26 | 51.91236 | 0.67750 | 234 ft | 11 kts | 229° |
| 2026-04-18 19:26 | 51.91199 | 0.67689 | 235 ft | 5 kts | 212° |
| 2026-04-18 19:26 | 51.91189 | 0.67677 | 230 ft | 0 kts | 215° |
| 2026-04-18 19:27 | 51.91188 | 0.67676 | 229 ft | 0 kts | 214° |
| 2026-04-18 19:43 | 51.91190 | 0.67666 | 233 ft | 5 kts | 319° |
| 2026-04-18 19:43 | 51.91242 | 0.67740 | 235 ft | 11 kts | 64° |
| 2026-04-18 19:43 | 51.91285 | 0.67868 | 238 ft | 14 kts | 60° |
| 2026-04-18 19:43 | 51.91333 | 0.68014 | 246 ft | 12 kts | 32° |
| 2026-04-18 19:44 | 51.91326 | 0.67983 | 288 ft | 24 kts | 240° |
| 2026-04-18 19:44 | 51.91153 | 0.67490 | 607 ft | 78 kts | 256° |
| 2026-04-18 19:44 | 51.90530 | 0.65651 | 702 ft | 119 kts | 248° |
| 2026-04-18 19:45 | 51.90129 | 0.64402 | 821 ft | 129 kts | 245° |
| 2026-04-18 19:45 | 51.89743 | 0.63075 | 853 ft | 129 kts | 245° |
| 2026-04-18 19:45 | 51.89384 | 0.61750 | 828 ft | 129 kts | 247° |
| 2026-04-18 19:45 | 51.89042 | 0.60421 | 909 ft | 119 kts | 247° |
| 2026-04-18 19:46 | 51.88776 | 0.59291 | 846 ft | 98 kts | 247° |
| 2026-04-18 19:46 | 51.88547 | 0.58287 | 749 ft | 94 kts | 248° |
| 2026-04-18 19:46 | 51.88315 | 0.57311 | 711 ft | 92 kts | 247° |
| 2026-04-18 19:46 | 51.88105 | 0.56347 | 645 ft | 91 kts | 252° |
| 2026-04-18 19:47 | 51.87680 | 0.55901 | 606 ft | 92 kts | 136° |
| 2026-04-18 19:47 | 51.87958 | 0.56464 | 473 ft | 82 kts | 355° |
| 2026-04-18 19:47 | 51.88462 | 0.56319 | 465 ft | 58 kts | 272° |
| 2026-04-18 19:47 | 51.88347 | 0.56039 | 356 ft | 30 kts | 190° |
| 2026-04-18 19:48 | 51.88191 | 0.55970 | 220 ft | 12 kts | 209° |
| 2026-04-18 19:48 | 51.88157 | 0.55959 | 218 ft | 5 kts | 172° |
| 2026-04-18 19:48 | 51.88126 | 0.56004 | 209 ft | 4 kts | 171° |
| 2026-04-18 19:48 | 51.88118 | 0.56016 | 189 ft | 0 kts | 173° |
| 2026-04-18 20:14 | 51.88116 | 0.56020 | 192 ft | 2 kts | 227° |
| 2026-04-18 20:15 | 51.88142 | 0.55996 | 194 ft | 6 kts | 295° |
| 2026-04-18 20:15 | 51.88148 | 0.55989 | 244 ft | 7 kts | 215° |
| 2026-04-18 20:15 | 51.88132 | 0.55990 | 405 ft | 25 kts | 217° |
| 2026-04-18 20:15 | 51.87732 | 0.56029 | 700 ft | 102 kts | 142° |
| 2026-04-18 20:16 | 51.87707 | 0.57270 | 941 ft | 127 kts | 69° |
| 2026-04-18 20:16 | 51.88100 | 0.58657 | 1006 ft | 141 kts | 58° |
| 2026-04-18 20:16 | 51.88618 | 0.60088 | 954 ft | 154 kts | 53° |
| 2026-04-18 20:16 | 51.89119 | 0.61695 | 854 ft | 164 kts | 66° |
| 2026-04-18 20:17 | 51.89509 | 0.63446 | 787 ft | 166 kts | 65° |
| 2026-04-18 20:17 | 51.89831 | 0.65215 | 804 ft | 163 kts | 74° |
| 2026-04-18 20:17 | 51.90058 | 0.66992 | 850 ft | 155 kts | 67° |
| 2026-04-18 20:17 | 51.90513 | 0.68478 | 870 ft | 142 kts | 49° |
| 2026-04-18 20:18 | 51.91084 | 0.69683 | 780 ft | 127 kts | 41° |
| 2026-04-18 20:18 | 51.91721 | 0.70325 | 677 ft | 93 kts | 334° |
| 2026-04-18 20:18 | 51.91852 | 0.69570 | 437 ft | 82 kts | 240° |
| 2026-04-18 20:18 | 51.91618 | 0.68839 | 289 ft | 64 kts | 236° |
| 2026-04-18 20:19 | 51.91445 | 0.68344 | 251 ft | 36 kts | 242° |
| 2026-04-18 20:19 | 51.91347 | 0.68063 | 242 ft | 22 kts | 245° |
| 2026-04-18 20:19 | 51.91282 | 0.67873 | 232 ft | 15 kts | 245° |
| 2026-04-18 20:19 | 51.91228 | 0.67742 | 240 ft | 12 kts | 218° |
| 2026-04-18 20:20 | 51.91197 | 0.67687 | 236 ft | 3 kts | 215° |
| 2026-04-18 20:20 | 51.91191 | 0.67679 | 229 ft | 0 kts | 207° |